Time;durP1;ratioP1;P1;durP2;ratioP2;P2;SDS_P1;SDS_P2;PMS_P1;PMS_P2;Temp;Humidity;BMP_temperature;BMP_pressure;BME280_temperature;BME280_humidity;BME280_pressure;Samples;Min_cycle;Max_cycle;Signal;HPM_P1;HPM_P2
2022/01/17 00:00:36;;;;;;;8.02;2.40;;;6.70;94.90;;;;;;6148027;23;20012;-84
2022/01/17 00:03:01;;;;;;;15.20;2.92;;;6.70;94.90;;;;;;6146394;23;20017;-84
2022/01/17 00:05:27;;;;;;;14.88;2.50;;;6.80;94.90;;;;;;6146814;23;20015;-83
2022/01/17 00:07:53;;;;;;;13.25;3.30;;;6.70;94.80;;;;;;6171593;23;20016;-84
2022/01/17 00:10:19;;;;;;;12.95;2.47;;;6.70;94.80;;;;;;6147435;23;20078;-85
2022/01/17 00:12:50;;;;;;;15.13;2.53;;;6.70;94.70;;;;;;6172353;23;20024;-84
2022/01/17 00:15:32;;;;;;;12.40;3.05;;;6.70;94.70;;;;;;6125475;23;20040;-85
2022/01/17 00:20:38;;;;;;;13.52;3.22;;;6.70;94.60;;;;;;6153278;23;20374;-84
2022/01/17 00:23:07;;;;;;;11.82;2.58;;;6.70;94.50;;;;;;6196874;23;20024;-84
2022/01/17 00:25:35;;;;;;;13.13;2.17;;;6.60;94.50;;;;;;6147637;23;20515;-83
2022/01/17 00:28:01;;;;;;;16.50;2.65;;;6.60;94.40;;;;;;6146709;23;20016;-84
2022/01/17 00:30:27;;;;;;;11.55;2.70;;;6.60;94.40;;;;;;6146872;23;20087;-84
2022/01/17 00:32:55;;;;;;;15.52;3.25;;;6.60;94.40;;;;;;6171720;23;20016;-84
2022/01/17 00:35:23;;;;;;;13.02;2.58;;;6.60;94.30;;;;;;6122391;23;20376;-84
2022/01/17 00:37:49;;;;;;;10.35;2.50;;;6.60;94.30;;;;;;6197320;23;20008;-85
2022/01/17 00:40:15;;;;;;;9.57;2.20;;;6.60;94.30;;;;;;6146632;23;20044;-83
2022/01/17 00:42:44;;;;;;;8.77;2.00;;;6.60;94.10;;;;;;6198246;23;20021;-83
2022/01/17 00:45:13;;;;;;;14.75;2.53;;;6.50;94.10;;;;;;6148715;23;20016;-84
2022/01/17 00:47:50;;;;;;;16.17;3.50;;;6.50;94.10;;;;;;6123477;23;20486;-83
2022/01/17 00:50:18;;;;;;;14.90;2.97;;;6.50;94.10;;;;;;6148812;23;20024;-84
2022/01/17 00:52:47;;;;;;;12.05;2.47;;;6.50;94.00;;;;;;6148081;23;20490;-84
2022/01/17 00:58:09;;;;;;;15.35;2.88;;;6.40;94.00;;;;;;6174506;23;20051;-84
2022/01/17 01:00:35;;;;;;;14.40;2.88;;;6.50;94.00;;;;;;6125646;23;20012;-84
2022/01/17 01:03:01;;;;;;;13.63;2.55;;;6.40;93.90;;;;;;6146849;23;20027;-85
2022/01/17 01:05:31;;;;;;;18.95;3.83;;;6.40;93.90;;;;;;6146876;23;20012;-84
2022/01/17 01:07:57;;;;;;;12.57;2.78;;;6.40;93.90;;;;;;6171287;23;20039;-84
2022/01/17 01:10:25;;;;;;;11.18;2.40;;;6.40;93.90;;;;;;6146118;23;20490;-83
2022/01/17 01:12:51;;;;;;;13.80;2.75;;;6.40;93.80;;;;;;6173270;23;20017;-84
2022/01/17 01:18:16;;;;;;;11.30;2.58;;;6.40;93.80;;;;;;6154172;23;20020;-84
2022/01/17 01:29:00;;;;;;;10.13;2.50;;;6.40;93.70;;;;;;6177783;23;20021;-84
2022/01/17 01:31:43;;;;;;;11.98;2.92;;;6.40;93.70;;;;;;6145984;23;20013;-83
2022/01/17 01:34:10;;;;;;;;;;;6.30;93.60;;;;;;6129030;23;20024;-83
2022/01/17 01:36:36;;;;;;;11.13;3.00;;;6.30;93.40;;;;;;6171283;23;19919;-84
2022/01/17 01:39:03;;;;;;;13.20;3.20;;;6.30;93.70;;;;;;6146382;23;20060;-83
2022/01/17 01:41:39;;;;;;;11.30;2.70;;;6.30;93.60;;;;;;6171900;23;20048;-84
2022/01/17 01:44:16;;;;;;;12.82;2.63;;;6.30;93.60;;;;;;6172927;23;20017;-83
2022/01/17 01:46:42;;;;;;;11.73;2.40;;;6.30;94.00;;;;;;6173028;23;20023;-83
2022/01/17 01:49:08;;;;;;;13.00;2.90;;;6.20;93.60;;;;;;6145821;23;20009;-83
2022/01/17 01:51:36;;;;;;;12.00;3.00;;;6.20;93.70;;;;;;6195524;23;20023;-83
2022/01/17 01:54:04;;;;;;;11.48;2.97;;;6.20;93.70;;;;;;6195451;23;20040;-82
2022/01/17 01:56:30;;;;;;;11.95;3.80;;;6.20;93.70;;;;;;6146053;23;20020;-83
2022/01/17 01:59:20;;;;;;;13.68;2.83;;;6.20;93.70;;;;;;6146677;23;20017;-83
2022/01/17 02:01:48;;;;;;;18.20;3.40;;;6.20;93.70;;;;;;6150027;23;20091;-83
2022/01/17 02:04:20;;;;;;;16.45;3.53;;;6.10;93.70;;;;;;6121871;23;20016;-82
2022/01/17 02:06:56;;;;;;;13.73;3.22;;;6.10;93.70;;;;;;6172026;23;20521;-83
2022/01/17 02:09:34;;;;;;;17.95;3.85;;;6.10;93.70;;;;;;6147533;23;20023;-83
2022/01/17 02:12:03;;;;;;;11.20;2.20;;;6.10;93.70;;;;;;6123864;23;20100;-83
2022/01/17 02:14:29;;;;;;;15.75;2.38;;;6.00;93.70;;;;;;6170575;23;20017;-83
2022/01/17 02:17:05;;;;;;;9.48;2.70;;;6.10;93.80;;;;;;6121306;23;20449;-83
2022/01/17 02:19:34;;;;;;;12.55;2.90;;;6.10;93.80;;;;;;6146537;23;20063;-84
2022/01/17 02:22:04;;;;;;;11.48;2.88;;;6.00;93.80;;;;;;6170745;23;20016;-83
2022/01/17 02:24:36;;;;;;;14.95;2.65;;;6.00;93.70;;;;;;6148537;23;20013;-83
2022/01/17 02:27:06;;;;;;;11.68;2.92;;;6.10;93.80;;;;;;6147148;23;20013;-83
2022/01/17 02:29:32;;;;;;;11.30;2.70;;;6.00;93.60;;;;;;6170254;23;20025;-83
2022/01/17 02:32:00;;;;;;;11.63;2.58;;;6.00;93.60;;;;;;6194622;23;20012;-83
2022/01/17 02:34:38;;;;;;;12.60;2.90;;;6.00;93.70;;;;;;6146795;23;20013;-84
2022/01/17 02:37:04;;;;;;;13.82;3.28;;;6.00;93.60;;;;;;6147200;23;20047;-83
2022/01/17 02:39:30;;;;;;;12.80;2.72;;;6.00;93.70;;;;;;6145373;23;20012;-84
2022/01/17 02:41:58;;;;;;;12.70;3.47;;;5.90;93.60;;;;;;6170746;23;20091;-83
2022/01/17 02:44:44;;;;;;;9.48;2.22;;;5.90;93.70;;;;;;6146695;23;20066;-83
2022/01/17 02:47:09;;;;;;;14.05;3.05;;;5.90;93.70;;;;;;6128192;23;20086;-83
2022/01/17 02:49:35;;;;;;;12.23;3.03;;;5.90;93.60;;;;;;6146183;23;20017;-84
2022/01/17 02:52:04;;;;;;;16.65;2.70;;;5.80;93.60;;;;;;6145896;23;20009;-83
2022/01/17 02:54:30;;;;;;;13.80;2.95;;;5.80;93.60;;;;;;6146648;23;20028;-83
2022/01/17 02:57:03;;;;;;;13.65;3.13;;;5.90;93.60;;;;;;6170602;23;20013;-83
2022/01/17 02:59:34;;;;;;;18.65;3.65;;;5.80;93.60;;;;;;6146949;23;20016;-83
2022/01/17 03:02:05;;;;;;;10.52;2.95;;;5.80;93.60;;;;;;6148263;23;20048;-83
2022/01/17 03:04:32;;;;;;;15.20;3.03;;;5.80;93.60;;;;;;6171616;23;20012;-82
2022/01/17 03:07:03;;;;;;;9.45;2.75;;;5.80;93.60;;;;;;6122047;23;20013;-83
2022/01/17 03:09:37;;;;;;;12.57;2.45;;;5.80;93.60;;;;;;6194187;23;20335;-83
2022/01/17 03:12:04;;;;;;;13.95;3.00;;;5.70;93.60;;;;;;6149262;23;20064;-82
2022/01/17 03:14:33;;;;;;;13.80;2.45;;;5.70;93.60;;;;;;6170169;23;20213;-83
2022/01/17 03:17:09;;;;;;;10.73;2.70;;;5.70;93.60;;;;;;6146368;23;20016;-83
2022/01/17 03:19:35;;;;;;;14.18;2.70;;;5.70;93.60;;;;;;6169451;23;20032;-82
2022/01/17 03:22:04;;;;;;;8.63;2.25;;;5.70;93.60;;;;;;6170283;23;20020;-82
2022/01/17 03:24:33;;;;;;;11.05;2.45;;;5.60;93.60;;;;;;6146170;23;20201;-84
2022/01/17 03:27:01;;;;;;;14.27;2.97;;;5.60;93.60;;;;;;6196217;23;20323;-83
2022/01/17 03:32:31;;;;;;;10.90;2.83;;;5.60;93.60;;;;;;6176497;23;20022;-83
2022/01/17 03:34:57;;;;;;;12.02;2.50;;;5.60;93.70;;;;;;6150839;23;20095;-82
2022/01/17 03:37:26;;;;;;;10.85;3.00;;;5.60;93.60;;;;;;6171892;23;20009;-83
2022/01/17 03:40:00;;;;;;;12.43;2.38;;;5.60;93.60;;;;;;6171963;23;20415;-83
2022/01/17 03:42:28;;;;;;;13.52;2.90;;;5.50;93.90;;;;;;6173706;23;20119;-83
2022/01/17 03:44:57;;;;;;;16.23;3.05;;;5.60;93.60;;;;;;6147611;23;20053;-83
2022/01/17 03:47:27;;;;;;;14.38;2.30;;;5.50;93.90;;;;;;6123554;23;20096;-83
2022/01/17 03:49:55;;;;;;;15.35;3.00;;;5.60;93.60;;;;;;6196713;23;20042;-83
2022/01/17 03:52:21;;;;;;;15.40;3.28;;;5.50;93.60;;;;;;6172472;23;20016;-83
2022/01/17 03:54:49;;;;;;;15.00;2.88;;;5.50;93.60;;;;;;6147207;23;20017;-82
2022/01/17 03:57:19;;;;;;;12.55;3.20;;;5.50;93.60;;;;;;6148396;23;20022;-82
2022/01/17 03:59:54;;;;;;;13.43;3.25;;;5.50;93.60;;;;;;6173015;23;20043;-83
2022/01/17 04:02:22;;;;;;;15.13;3.45;;;5.50;93.60;;;;;;6126697;23;20461;-82
2022/01/17 04:07:33;;;;;;;13.40;2.90;;;5.50;93.60;;;;;;6175302;23;20023;-83
2022/01/17 04:10:01;;;;;;;17.60;3.33;;;5.50;93.60;;;;;;6171596;23;20311;-83
2022/01/17 04:12:34;;;;;;;11.73;2.55;;;5.50;93.60;;;;;;6123587;23;20379;-83
2022/01/17 04:15:03;;;;;;;12.15;3.05;;;5.60;93.60;;;;;;6172551;23;20028;-83
2022/01/17 04:17:40;;;;;;;16.38;2.85;;;5.60;93.70;;;;;;6148444;23;20048;-83
2022/01/17 04:20:09;;;;;;;13.77;3.78;;;5.60;93.60;;;;;;6149854;23;20430;-84
2022/01/17 04:22:39;;;;;;;16.85;3.47;;;5.60;93.60;;;;;;6148050;23;20016;-84
2022/01/17 04:25:05;;;;;;;14.43;3.20;;;5.60;93.60;;;;;;6147785;23;20122;-82
2022/01/17 04:27:31;;;;;;;13.32;2.50;;;5.60;93.60;;;;;;6122800;23;20063;-83
2022/01/17 04:29:59;;;;;;;15.02;2.80;;;5.60;93.60;;;;;;6197816;23;20020;-82
2022/01/17 04:32:36;;;;;;;;;;;;;;;;;;;;;
2022/01/17 04:35:14;;;;;;;;;;;;;;;;;;;;;
2022/01/17 04:37:43;;;;;;;10.43;2.45;;;5.50;93.60;;;;;;6151883;23;20017;-83
2022/01/17 04:40:09;;;;;;;11.30;2.88;;;5.50;93.60;;;;;;6171477;23;20422;-83
2022/01/17 04:42:43;;;;;;;15.05;2.83;;;5.50;94.00;;;;;;6172289;23;20028;-83
2022/01/17 04:45:10;;;;;;;15.48;3.03;;;5.50;93.70;;;;;;6178923;23;20023;-83
2022/01/17 04:47:48;;;;;;;11.13;2.53;;;5.50;93.70;;;;;;6186208;23;20082;-84
2022/01/17 04:50:32;;;;;;;8.52;2.00;;;5.50;93.70;;;;;;6159802;23;20016;-83
2022/01/17 04:53:01;;;;;;;14.10;3.05;;;5.50;93.70;;;;;;6159269;23;20019;-84
2022/01/17 04:55:27;;;;;;;15.00;2.72;;;5.50;93.80;;;;;;6177873;23;20071;-83
2022/01/17 04:57:59;;;;;;;10.90;2.50;;;5.50;93.80;;;;;;6174095;23;20035;-83
2022/01/17 05:00:37;;;;;;;;;;;;;;;;;;;;;
2022/01/17 05:03:05;;;;;;;13.55;3.17;;;5.50;94.20;;;;;;6174078;23;20019;-83
2022/01/17 05:05:34;;;;;;;11.00;2.85;;;5.50;93.90;;;;;;6197436;23;20074;-84
2022/01/17 05:08:02;;;;;;;10.35;2.75;;;5.50;93.90;;;;;;6147647;23;20016;-81
2022/01/17 05:10:31;;;;;;;9.80;2.63;;;5.50;93.90;;;;;;6148546;23;20020;-83
2022/01/17 05:12:56;;;;;;;12.95;3.13;;;5.50;94.00;;;;;;6124075;23;20388;-83
2022/01/17 05:15:35;;;;;;;9.57;2.53;;;5.50;94.00;;;;;;6148071;23;20016;-82
2022/01/17 05:20:31;;;;;;;12.07;4.28;;;5.50;94.10;;;;;;6158276;23;20047;-83
2022/01/17 05:23:06;;;;;;;11.20;2.80;;;5.60;94.10;;;;;;6157095;23;20016;-83
2022/01/17 05:25:34;;;;;;;11.93;3.00;;;5.60;94.20;;;;;;6199788;23;20013;-83
2022/01/17 05:28:03;;;;;;;13.90;2.50;;;5.60;94.20;;;;;;6147999;23;20064;-83
2022/01/17 05:30:40;;;;;;;10.93;3.15;;;5.60;94.20;;;;;;6147566;23;20048;-83
2022/01/17 05:33:08;;;;;;;9.55;2.65;;;5.60;94.20;;;;;;6173658;23;20043;-83
2022/01/17 05:35:34;;;;;;;12.95;3.28;;;5.60;94.20;;;;;;6122938;23;20028;-83
2022/01/17 05:38:00;;;;;;;10.85;2.80;;;5.70;94.30;;;;;;6146581;23;20012;-82
2022/01/17 05:40:26;;;;;;;13.65;3.13;;;5.70;94.30;;;;;;6122470;23;20166;-82
2022/01/17 05:43:04;;;;;;;11.23;2.85;;;5.70;94.30;;;;;;6146765;23;20021;-83
2022/01/17 05:45:35;;;;;;;14.50;2.90;;;5.70;94.40;;;;;;6149896;23;20013;-83
2022/01/17 05:48:04;;;;;;;12.48;4.07;;;5.70;94.40;;;;;;6196473;23;20009;-82
2022/01/17 05:50:39;;;;;;;11.73;2.97;;;5.70;94.40;;;;;;6148257;23;20095;-82
2022/01/17 05:53:14;;;;;;;14.57;4.18;;;5.80;94.50;;;;;;6172773;23;20012;-83
2022/01/17 05:55:43;;;;;;;13.68;4.07;;;5.80;94.50;;;;;;6151012;23;20012;-83
2022/01/17 05:58:11;;;;;;;14.52;3.88;;;5.80;94.80;;;;;;6146675;23;20019;-84
2022/01/17 06:00:37;;;;;;;22.08;5.18;;;5.80;94.50;;;;;;6146942;23;20021;-83
2022/01/17 06:03:05;;;;;;;18.90;4.53;;;5.80;94.50;;;;;;6196324;23;20100;-83
2022/01/17 06:05:34;;;;;;;14.32;5.53;;;5.80;94.60;;;;;;6195597;23;20016;-83
2022/01/17 06:08:02;;;;;;;16.27;5.18;;;5.90;94.60;;;;;;6146954;23;20020;-84
2022/01/17 06:10:30;;;;;;;13.98;3.67;;;5.90;94.60;;;;;;6146075;23;20020;-84
2022/01/17 06:12:56;;;;;;;14.20;5.25;;;5.90;94.70;;;;;;6146700;23;20074;-85
2022/01/17 06:15:36;;;;;;;15.82;5.82;;;5.90;94.70;;;;;;6151804;23;20020;-85
2022/01/17 06:18:07;;;;;;;19.40;5.80;;;5.90;94.70;;;;;;6148877;23;20056;-82
2022/01/17 06:20:33;;;;;;;16.58;6.47;;;6.00;94.80;;;;;;6122298;23;20013;-82
2022/01/17 06:22:59;;;;;;;15.65;5.57;;;5.90;94.80;;;;;;6145741;23;20015;-82
2022/01/17 06:25:32;;;;;;;19.48;6.55;;;5.90;94.80;;;;;;6124441;23;20016;-84
2022/01/17 06:28:01;;;;;;;16.90;7.05;;;6.00;94.90;;;;;;6149681;23;20425;-78
2022/01/17 06:30:29;;;;;;;15.52;6.82;;;6.00;94.90;;;;;;6172521;23;20017;-75
2022/01/17 06:32:58;;;;;;;17.02;7.18;;;6.00;94.90;;;;;;6146046;23;20012;-87
2022/01/17 06:35:24;;;;;;;15.45;6.00;;;6.00;94.90;;;;;;6122954;23;20027;-88
2022/01/17 06:37:51;;;;;;;21.40;7.53;;;6.10;95.00;;;;;;6148443;23;20022;-83
2022/01/17 06:40:20;;;;;;;20.85;8.15;;;6.10;95.10;;;;;;6147800;23;20162;-85
2022/01/17 06:43:15;;;;;;;16.65;7.50;;;6.10;95.00;;;;;;6154833;23;20079;-86
2022/01/17 06:45:45;;;;;;;22.42;8.90;;;6.10;95.00;;;;;;6124760;23;20028;-84
2022/01/17 06:48:11;;;;;;;19.33;8.45;;;6.20;95.00;;;;;;6143087;23;20878;-84
2022/01/17 06:50:37;;;;;;;18.73;8.80;;;6.20;95.00;;;;;;6144815;23;20020;-81
2022/01/17 06:53:05;;;;;;;23.85;8.52;;;6.20;95.00;;;;;;6170108;23;20016;-81
2022/01/17 06:55:34;;;;;;;22.70;9.68;;;6.20;95.10;;;;;;6121860;23;20048;-83
2022/01/17 06:58:02;;;;;;;22.15;8.77;;;6.20;95.10;;;;;;6145772;23;20532;-84
2022/01/17 07:00:28;;;;;;;21.05;8.75;;;6.20;95.10;;;;;;6121423;23;20024;-83
2022/01/17 07:02:54;;;;;;;22.17;9.80;;;6.20;95.10;;;;;;6140611;23;20021;-79
2022/01/17 07:05:37;;;;;;;23.77;10.18;;;6.20;95.10;;;;;;6166798;23;20355;-84
2022/01/17 07:08:04;;;;;;;22.63;9.55;;;6.20;95.10;;;;;;6145061;23;20039;-84
2022/01/17 07:10:35;;;;;;;20.55;9.68;;;6.20;95.20;;;;;;6122839;23;20013;-89
2022/01/17 07:13:04;;;;;;;22.50;10.05;;;6.20;95.10;;;;;;6125049;23;20059;-80
2022/01/17 07:15:34;;;;;;;22.10;11.02;;;6.30;95.20;;;;;;6173163;23;20020;-83
2022/01/17 07:18:00;;;;;;;23.13;10.15;;;6.30;95.20;;;;;;6151842;23;20028;-82
2022/01/17 07:20:29;;;;;;;23.73;9.43;;;6.30;95.20;;;;;;6151702;23;20024;-82
2022/01/17 07:22:54;;;;;;;20.10;10.38;;;6.30;95.20;;;;;;6148684;23;20016;-82
2022/01/17 07:25:25;;;;;;;22.50;10.00;;;6.30;95.30;;;;;;6173421;23;20024;-81
2022/01/17 07:27:52;;;;;;;18.88;10.18;;;6.30;95.30;;;;;;6200152;23;20016;-82
2022/01/17 07:30:18;;;;;;;23.45;10.48;;;6.30;95.30;;;;;;6125492;23;20021;-83
2022/01/17 07:32:47;;;;;;;20.17;10.20;;;6.30;95.40;;;;;;6150020;23;20394;-83
2022/01/17 07:35:13;;;;;;;20.45;10.50;;;6.30;95.40;;;;;;6126599;23;20020;-83
2022/01/17 07:37:44;;;;;;;21.38;9.50;;;6.30;95.50;;;;;;6175261;23;20106;-83
2022/01/17 07:40:13;;;;;;;22.05;9.35;;;6.30;95.50;;;;;;6126803;23;20029;-83
2022/01/17 07:42:53;;;;;;;30.30;10.30;;;6.40;95.60;;;;;;6149880;23;20347;-83
2022/01/17 07:45:30;;;;;;;22.67;9.70;;;6.40;95.60;;;;;;6154703;23;20439;-83
2022/01/17 07:48:11;;;;;;;21.67;9.75;;;6.40;95.60;;;;;;6129867;23;20020;-83
2022/01/17 07:50:42;;;;;;;18.67;8.25;;;6.40;95.70;;;;;;6131866;23;20020;-83
2022/01/17 07:53:11;;;;;;;20.07;9.33;;;6.40;95.70;;;;;;6150731;23;20027;-83
2022/01/17 07:55:36;;;;;;;19.42;8.80;;;6.40;95.70;;;;;;6176142;23;20555;-83
2022/01/17 07:58:05;;;;;;;27.00;8.43;;;6.40;95.70;;;;;;6126193;23;20044;-83
2022/01/17 08:00:30;;;;;;;23.92;8.52;;;6.40;95.70;;;;;;6150240;23;20017;-83
2022/01/17 08:02:58;;;;;;;21.58;8.93;;;6.40;95.80;;;;;;6200463;23;20028;-82
2022/01/17 08:05:24;;;;;;;17.08;7.78;;;6.50;95.80;;;;;;6125994;23;20051;-83
2022/01/17 08:07:50;;;;;;;16.38;7.57;;;6.50;95.80;;;;;;6199588;23;20021;-83
2022/01/17 08:10:16;;;;;;;24.80;8.55;;;6.50;95.90;;;;;;6150220;23;20017;-83
2022/01/17 08:12:48;;;;;;;20.40;7.85;;;6.50;95.90;;;;;;6126941;23;20339;-83
2022/01/17 08:15:15;;;;;;;24.40;7.63;;;6.50;95.90;;;;;;6174744;23;20123;-83
2022/01/17 08:17:52;;;;;;;19.52;7.18;;;6.60;95.90;;;;;;6125500;23;20451;-84
2022/01/17 08:20:19;;;;;;;21.60;7.18;;;6.60;95.90;;;;;;6128012;23;20017;-84
2022/01/17 08:22:45;;;;;;;23.10;7.68;;;6.60;95.90;;;;;;6200366;23;20017;-83
2022/01/17 08:25:14;;;;;;;20.23;7.10;;;6.60;95.90;;;;;;6150068;23;20032;-83
2022/01/17 08:27:39;;;;;;;17.92;6.03;;;6.60;95.90;;;;;;6151617;23;20323;-83
2022/01/17 08:30:08;;;;;;;19.73;5.53;;;6.60;95.90;;;;;;6174680;23;20024;-83
2022/01/17 08:32:37;;;;;;;20.05;5.63;;;6.60;95.90;;;;;;6124165;23;20127;-83
2022/01/17 08:35:03;;;;;;;22.27;6.28;;;6.60;95.90;;;;;;6199488;23;20092;-83
2022/01/17 08:37:30;;;;;;;24.05;6.97;;;6.60;95.90;;;;;;6173880;23;20027;-83
2022/01/17 08:39:58;;;;;;;17.73;7.97;;;6.60;95.90;;;;;;6149794;23;20343;-83
2022/01/17 08:42:26;;;;;;;16.45;5.43;;;6.70;96.00;;;;;;6149496;23;20031;-82
2022/01/17 08:44:55;;;;;;;21.48;5.70;;;6.70;95.90;;;;;;6126271;23;20023;-82
2022/01/17 08:47:21;;;;;;;23.98;6.78;;;6.70;95.90;;;;;;6125312;23;20099;-82
2022/01/17 08:49:52;;;;;;;18.85;5.75;;;6.70;96.00;;;;;;6149433;23;20021;-83
2022/01/17 08:52:18;;;;;;;21.00;5.50;;;6.70;96.00;;;;;;6199430;23;20020;-82
2022/01/17 08:54:54;;;;;;;22.63;6.32;;;6.80;96.00;;;;;;6124550;23;20021;-83
2022/01/17 08:57:20;;;;;;;19.27;5.47;;;6.70;96.00;;;;;;6150322;23;20021;-82
2022/01/17 08:59:46;;;;;;;21.00;6.03;;;6.80;96.00;;;;;;6148675;23;20020;-82
2022/01/17 09:02:15;;;;;;;21.73;6.25;;;6.90;96.00;;;;;;6149185;23;20020;-82
2022/01/17 09:04:47;;;;;;;23.02;6.18;;;6.90;95.90;;;;;;6128412;23;20020;-82
2022/01/17 09:07:15;;;;;;;22.63;5.70;;;6.90;95.90;;;;;;6125961;23;20040;-83
2022/01/17 09:09:41;;;;;;;23.40;5.15;;;6.90;95.90;;;;;;6124785;23;20099;-83
2022/01/17 09:12:08;;;;;;;16.42;4.55;;;7.00;95.90;;;;;;6150126;23;20458;-82
2022/01/17 09:14:34;;;;;;;24.05;5.57;;;7.00;95.90;;;;;;6149300;23;20047;-84
2022/01/17 09:17:03;;;;;;;19.75;6.20;;;7.00;95.90;;;;;;6148799;23;20021;-83
2022/01/17 09:19:29;;;;;;;24.13;6.13;;;7.10;95.90;;;;;;6148815;23;20024;-84
2022/01/17 09:21:55;;;;;;;27.15;5.68;;;7.10;95.90;;;;;;6149803;23;20016;-83
2022/01/17 09:24:24;;;;;;;22.58;5.40;;;7.10;95.90;;;;;;6175061;23;20020;-84
2022/01/17 09:26:49;;;;;;;20.98;5.65;;;7.10;95.90;;;;;;6174031;23;20066;-83
2022/01/17 09:29:15;;;;;;;19.48;4.80;;;7.20;95.90;;;;;;6149458;23;20021;-82
2022/01/17 09:31:47;;;;;;;24.20;5.55;;;7.20;95.90;;;;;;6173828;23;20031;-84
2022/01/17 09:34:16;;;;;;;25.08;6.03;;;7.20;95.80;;;;;;6126421;23;20104;-83
2022/01/17 09:36:42;;;;;;;24.73;4.82;;;7.30;95.80;;;;;;6173197;23;20087;-83
2022/01/17 09:39:08;;;;;;;22.95;5.93;;;7.30;95.80;;;;;;6149237;23;20304;-83
2022/01/17 09:41:36;;;;;;;22.00;5.78;;;7.40;95.80;;;;;;6125467;23;20016;-83
2022/01/17 09:44:04;;;;;;;27.80;5.72;;;7.40;95.80;;;;;;6174192;23;20020;-83
2022/01/17 09:46:36;;;;;;;25.63;5.60;;;7.50;95.80;;;;;;6173640;23;20027;-84
2022/01/17 09:49:13;;;;;;;23.90;5.90;;;7.50;95.70;;;;;;6151572;23;20083;-83
2022/01/17 09:52:04;;;;;;;20.30;5.10;;;7.60;95.70;;;;;;6151406;23;20017;-83
2022/01/17 09:54:31;;;;;;;20.52;5.47;;;7.70;95.70;;;;;;6157031;23;20020;-83
2022/01/17 09:56:57;;;;;;;29.05;5.72;;;7.80;95.70;;;;;;6125373;23;20025;-82
2022/01/17 09:59:28;;;;;;;26.55;5.68;;;7.80;95.60;;;;;;6150599;23;20020;-84
2022/01/17 10:01:57;;;;;;;23.88;5.03;;;7.90;95.50;;;;;;6152169;23;20016;-83
2022/01/17 10:04:23;;;;;;;25.05;5.90;;;8.00;95.50;;;;;;6149342;23;20482;-84
2022/01/17 10:07:00;;;;;;;21.15;5.43;;;8.00;95.40;;;;;;6148600;23;20321;-83
2022/01/17 10:09:27;;;;;;;24.05;4.97;;;8.20;95.50;;;;;;6151703;23;20016;-84
2022/01/17 10:12:03;;;;;;;27.20;5.90;;;8.20;95.40;;;;;;6124537;23;20072;-84
2022/01/17 10:14:35;;;;;;;23.52;5.15;;;8.30;95.30;;;;;;6198382;23;20017;-83
2022/01/17 10:17:27;;;;;;;20.70;5.50;;;8.30;95.20;;;;;;6126399;23;20059;-84
2022/01/17 10:20:00;;;;;;;25.67;4.75;;;8.40;95.20;;;;;;6120297;23;20020;-83
2022/01/17 10:22:35;;;;;;;27.25;5.40;;;8.50;95.20;;;;;;6198118;23;20020;-84
2022/01/17 10:25:25;;;;;;;26.17;6.05;;;8.50;95.10;;;;;;6128147;23;20039;-84
2022/01/17 10:28:59;;;;;;;24.90;5.75;;;8.60;95.00;;;;;;6129641;23;20016;-84
2022/01/17 10:36:50;;;;;;;23.58;4.88;;;8.90;94.90;;;;;;6156008;23;20056;-83
2022/01/17 10:39:18;;;;;;;29.65;7.32;;;8.90;94.80;;;;;;6197734;23;20067;-82
2022/01/17 10:41:47;;;;;;;27.85;7.07;;;9.00;94.80;;;;;;6175037;23;20027;-84
2022/01/17 10:44:37;;;;;;;22.80;5.63;;;9.00;94.70;;;;;;6172638;23;20339;-84
2022/01/17 10:47:24;;;;;;;26.63;5.28;;;9.20;94.60;;;;;;6150083;23;20024;-83
2022/01/17 10:49:53;;;;;;;25.90;6.22;;;9.20;94.50;;;;;;6148531;23;20075;-83
2022/01/17 10:52:37;;;;;;;26.35;5.55;;;9.30;94.50;;;;;;6149685;23;20020;-84
2022/01/17 10:55:06;;;;;;;22.20;4.85;;;9.40;94.40;;;;;;6181621;23;20023;-84
2022/01/17 10:57:39;;;;;;;32.47;6.47;;;9.40;94.70;;;;;;6181668;23;20020;-84
2022/01/17 11:00:11;;;;;;;25.90;6.20;;;9.50;94.20;;;;;;6163035;23;20020;-83
2022/01/17 11:02:37;;;;;;;30.95;6.18;;;9.50;94.10;;;;;;6163542;23;20021;-84
2022/01/17 11:05:07;;;;;;;24.88;5.93;;;9.60;94.10;;;;;;6162558;23;20021;-84
2022/01/17 11:07:39;;;;;;;27.65;7.10;;;9.70;94.00;;;;;;6186268;23;20012;-85
2022/01/17 11:10:08;;;;;;;28.02;5.95;;;9.80;93.90;;;;;;6155688;23;20016;-83
2022/01/17 11:12:34;;;;;;;27.58;6.53;;;9.90;93.80;;;;;;6154394;23;20047;-84
2022/01/17 11:15:00;;;;;;;27.27;7.53;;;9.90;93.80;;;;;;6155312;23;20032;-84
2022/01/17 11:17:38;;;;;;;30.75;6.85;;;9.90;93.70;;;;;;6208555;23;20048;-83
2022/01/17 11:20:07;;;;;;;24.65;6.43;;;9.90;94.00;;;;;;6162849;23;20043;-84
2022/01/17 11:22:35;;;;;;;28.05;6.00;;;9.90;93.70;;;;;;6127452;23;20027;-79
2022/01/17 11:25:09;;;;;;;23.50;6.35;;;9.90;93.60;;;;;;6147637;23;20025;-85
2022/01/17 11:27:48;;;;;;;;;;;;;;;;;;;;;
2022/01/17 11:30:17;;;;;;;25.48;7.28;;;10.10;93.20;;;;;;6159097;23;20016;-88
2022/01/17 11:32:49;;;;;;;36.30;7.45;;;10.10;93.20;;;;;;6153423;23;20017;-89
2022/01/17 11:35:42;;;;;;;;;;;;;;;;;;;;;
2022/01/17 11:38:19;;;;;;;27.27;7.72;;;10.00;93.30;;;;;;6157108;23;20316;-86
2022/01/17 11:41:07;;;;;;;35.10;7.30;;;10.00;93.50;;;;;;6154546;23;20031;-93
2022/01/17 11:46:55;;;;;;;27.58;7.35;;;10.30;93.40;;;;;;6125538;23;20051;-84
2022/01/17 11:49:58;;;;;;;24.50;5.82;;;10.80;93.10;;;;;;6154920;23;20059;-90
2022/01/17 11:52:42;;;;;;;;;;;;;;;;;;;;;
2022/01/17 11:55:16;;;;;;;29.88;7.65;;;11.90;92.30;;;;;;6152678;23;19916;-87
2022/01/17 11:57:45;;;;;;;29.42;8.00;;;12.50;91.70;;;;;;6149312;23;20017;-90
2022/01/17 12:00:28;;;;;;;31.80;7.43;;;12.90;91.00;;;;;;6146919;23;20021;-86
2022/01/17 12:03:20;;;;;;;30.90;6.93;;;13.30;90.30;;;;;;6118788;23;20060;-89
2022/01/17 12:05:46;;;;;;;31.30;7.57;;;13.70;89.70;;;;;;6171990;23;20056;-90
2022/01/17 12:08:41;;;;;;;34.03;7.68;;;14.10;89.30;;;;;;6173219;23;20024;-93
2022/01/17 12:11:26;;;;;;;35.65;8.27;;;14.50;87.10;;;;;;6145371;23;20028;-94
2022/01/17 12:14:00;;;;;;;26.92;7.10;;;14.70;86.80;;;;;;6149489;23;20027;-93
2022/01/17 12:16:30;;;;;;;27.50;7.72;;;14.90;86.80;;;;;;6150284;23;20048;-93
2022/01/17 12:19:15;;;;;;;34.97;7.97;;;15.10;86.20;;;;;;6149797;23;20028;-93
2022/01/17 12:21:53;;;;;;;27.80;6.47;;;15.00;86.00;;;;;;6147242;23;20024;-91
2022/01/17 12:24:39;;;;;;;32.90;7.82;;;15.10;84.90;;;;;;6148194;23;20324;-84
2022/01/17 12:27:07;;;;;;;27.42;7.55;;;15.10;83.60;;;;;;6140694;23;20098;-80
2022/01/17 12:29:47;;;;;;;15.15;4.25;;;14.80;85.00;;;;;;6164615;23;20021;-76
2022/01/17 12:32:23;;;;;;;24.65;7.05;;;14.60;84.30;;;;;;6141807;23;20017;-81
2022/01/17 12:34:54;;;;;;;23.02;6.22;;;14.50;84.10;;;;;;6143114;23;20021;-83
2022/01/17 12:37:44;;;;;;;29.35;7.55;;;14.30;84.90;;;;;;6168259;23;20055;-80
2022/01/17 12:40:32;;;;;;;28.38;7.25;;;13.90;84.10;;;;;;6142740;23;20572;-82
2022/01/17 12:43:06;;;;;;;29.77;7.82;;;13.70;85.60;;;;;;6145449;23;20028;-84
2022/01/17 12:45:36;;;;;;;33.25;7.20;;;13.40;86.20;;;;;;6144625;23;20024;-85
2022/01/17 12:48:07;;;;;;;28.92;7.18;;;13.20;86.00;;;;;;6144460;23;20048;-81
2022/01/17 12:50:33;;;;;;;30.05;8.02;;;13.10;86.60;;;;;;6146189;23;20021;-86
2022/01/17 12:53:00;;;;;;;30.10;7.05;;;13.10;86.80;;;;;;6120249;23;20083;-82
2022/01/17 12:55:38;;;;;;;31.50;6.88;;;13.20;86.80;;;;;;6169198;23;20092;-85
2022/01/17 12:58:15;;;;;;;23.92;7.10;;;13.50;86.20;;;;;;6145349;23;20028;-84
2022/01/17 13:01:08;;;;;;;29.17;8.35;;;13.70;85.90;;;;;;6145716;23;20020;-85
2022/01/17 13:03:50;;;;;;;28.25;7.32;;;13.80;85.40;;;;;;6149574;23;20044;-87
2022/01/17 13:06:17;;;;;;;27.08;6.60;;;14.00;85.20;;;;;;6146141;23;20133;-83
2022/01/17 13:08:47;;;;;;;31.33;8.00;;;13.90;85.10;;;;;;6168546;23;20036;-86
2022/01/17 13:11:19;;;;;;;29.23;7.15;;;13.70;85.10;;;;;;6144649;23;20762;-84
2022/01/17 13:13:57;;;;;;;31.52;9.27;;;13.40;85.20;;;;;;6144054;23;20048;-83
2022/01/17 13:16:41;;;;;;;25.35;7.13;;;13.30;85.40;;;;;;6121275;23;20021;-86
2022/01/17 13:19:09;;;;;;;28.30;7.47;;;13.00;85.90;;;;;;6143826;23;20017;-82
2022/01/17 13:21:42;;;;;;;29.13;6.57;;;12.80;86.30;;;;;;6144017;23;20025;-85
2022/01/17 13:24:34;;;;;;;28.33;7.30;;;12.70;86.80;;;;;;6097014;23;20021;-84
2022/01/17 13:27:06;;;;;;;28.83;7.93;;;12.50;87.00;;;;;;6148876;23;20506;-85
2022/01/17 13:29:42;;;;;;;33.83;7.55;;;12.40;87.40;;;;;;6145551;23;20021;-83
2022/01/17 13:32:12;;;;;;;28.95;6.95;;;12.30;87.40;;;;;;6120526;23;20063;-85
2022/01/17 13:34:48;;;;;;;27.50;7.25;;;12.20;87.70;;;;;;6142811;23;20405;-82
2022/01/17 13:37:16;;;;;;;32.28;7.35;;;12.10;87.70;;;;;;6166277;23;20051;-80
2022/01/17 13:39:45;;;;;;;28.45;8.73;;;12.00;88.00;;;;;;6116553;23;20097;-82
2022/01/17 13:42:14;;;;;;;28.03;7.50;;;12.00;88.20;;;;;;6190650;23;20025;-83
2022/01/17 13:44:40;;;;;;;32.40;8.88;;;11.90;88.30;;;;;;6167996;23;20466;-82
2022/01/17 13:47:10;;;;;;;26.35;7.43;;;11.70;88.30;;;;;;6167852;23;20047;-84